createdAt,value
2023-04-12T00:02:01.223Z,8.60
2023-04-12T00:04:29.620Z,8.60
2023-04-12T00:06:58.110Z,8.60
2023-04-12T00:09:30.938Z,8.50
2023-04-12T00:11:59.322Z,8.50
2023-04-12T00:14:27.344Z,8.50
2023-04-12T00:16:55.581Z,8.50
2023-04-12T00:19:27.818Z,8.44
2023-04-12T00:21:56.675Z,8.40
2023-04-12T00:24:25.332Z,8.40
2023-04-12T00:26:53.371Z,8.40
2023-04-12T00:29:21.496Z,8.40
2023-04-12T00:31:49.603Z,8.40
2023-04-12T00:34:17.845Z,8.30
2023-04-12T00:36:46.314Z,8.30
2023-04-12T00:39:14.448Z,8.30
2023-04-12T00:41:42.430Z,8.32
2023-04-12T00:44:10.495Z,8.28
2023-04-12T00:46:38.904Z,8.20
2023-04-12T00:49:07.330Z,8.20
2023-04-12T00:51:35.380Z,8.20
2023-04-12T00:54:03.963Z,8.20
2023-04-12T00:56:32.829Z,8.22
2023-04-12T00:59:02.057Z,8.30
2023-04-12T01:01:32.148Z,8.36
2023-04-12T01:04:01.487Z,8.30
2023-04-12T01:06:39.839Z,8.30
2023-04-12T01:09:33.529Z,8.34
2023-04-12T01:12:05.941Z,8.30
2023-04-12T01:14:42.011Z,8.28
2023-04-12T01:20:09.511Z,8.32
2023-04-12T01:22:55.601Z,8.30
2023-04-12T01:25:48.231Z,8.30
2023-04-12T01:28:20.376Z,8.30
2023-04-12T01:30:48.539Z,8.20
2023-04-12T01:33:16.661Z,8.20
2023-04-12T01:35:44.946Z,8.20
2023-04-12T01:38:13.044Z,8.20
2023-04-12T01:40:42.802Z,8.20
2023-04-12T01:43:11.927Z,8.20
2023-04-12T01:45:40.116Z,8.28
2023-04-12T01:48:09.678Z,8.20
2023-04-12T01:50:46.392Z,8.18
2023-04-12T01:53:42.625Z,8.20
2023-04-12T01:56:11.090Z,8.24
2023-04-12T01:58:39.685Z,8.30
2023-04-12T02:01:07.762Z,8.30
2023-04-12T02:03:37.844Z,8.30
2023-04-12T02:06:06.329Z,8.30
2023-04-12T02:08:34.554Z,8.40
2023-04-12T02:11:08.540Z,8.40
2023-04-12T02:13:36.721Z,8.40
2023-04-12T02:16:07.992Z,8.42
2023-04-12T02:18:36.166Z,8.50
2023-04-12T02:21:05.676Z,8.50
2023-04-12T02:23:33.776Z,8.60
2023-04-12T02:26:01.900Z,8.60
2023-04-12T02:28:30.633Z,8.60
2023-04-12T02:30:59.066Z,8.60
2023-04-12T02:33:28.416Z,8.60
2023-04-12T02:38:31.502Z,8.66
2023-04-12T02:41:00.835Z,8.68
2023-04-12T02:43:29.433Z,8.70
2023-04-12T02:46:01.120Z,8.70
2023-04-12T02:48:29.409Z,8.70
2023-04-12T02:50:57.443Z,8.72
2023-04-12T02:53:26.429Z,8.70
2023-04-12T02:56:09.673Z,8.60
2023-04-12T02:58:37.831Z,8.70
2023-04-12T03:01:09.238Z,8.70
2023-04-12T03:03:50.801Z,8.74
2023-04-12T03:06:33.311Z,8.70
2023-04-12T03:09:01.637Z,8.70
2023-04-12T03:11:29.871Z,8.72
2023-04-12T03:13:58.814Z,8.78
2023-04-12T03:16:30.182Z,8.76
2023-04-12T03:19:07.334Z,8.70
2023-04-12T03:21:36.872Z,8.80
2023-04-12T03:24:05.370Z,8.80
2023-04-12T03:26:33.510Z,8.84
2023-04-12T03:29:11.599Z,8.90
2023-04-12T03:31:41.106Z,8.90
2023-04-12T03:34:10.052Z,8.86
2023-04-12T03:36:41.734Z,8.90
2023-04-12T03:39:18.080Z,8.90
2023-04-12T03:41:46.810Z,8.90
2023-04-12T03:44:15.330Z,8.92
2023-04-12T03:46:43.716Z,8.90
2023-04-12T03:49:12.507Z,8.90
2023-04-12T03:51:42.843Z,8.90
2023-04-12T03:54:13.138Z,8.90
2023-04-12T03:56:59.011Z,8.90
2023-04-12T03:59:32.966Z,8.80
2023-04-12T04:02:01.489Z,8.70
2023-04-12T04:04:30.933Z,8.70
2023-04-12T04:07:01.338Z,8.70
2023-04-12T04:09:30.420Z,8.70
2023-04-12T04:11:58.508Z,8.70
2023-04-12T04:14:27.810Z,8.66
2023-04-12T04:16:56.298Z,8.60
2023-04-12T04:19:24.487Z,8.60
2023-04-12T04:21:52.648Z,8.60
2023-04-12T04:24:22.496Z,8.62
2023-04-12T04:26:54.465Z,8.64
2023-04-12T04:29:25.902Z,8.62
2023-04-12T04:31:54.308Z,8.60
2023-04-12T04:34:23.377Z,8.52
2023-04-12T04:36:52.931Z,8.50
2023-04-12T04:39:27.552Z,8.50
2023-04-12T04:41:57.712Z,8.46
2023-04-12T04:44:42.786Z,8.50
2023-04-12T04:47:12.006Z,8.50
2023-04-12T04:49:40.041Z,8.40
2023-04-12T04:52:26.253Z,8.44
2023-04-12T04:54:58.534Z,8.48
2023-04-12T04:57:29.159Z,8.54
2023-04-12T04:59:58.253Z,8.60
2023-04-12T05:02:26.443Z,8.70
2023-04-12T05:04:56.564Z,8.80
2023-04-12T05:07:26.343Z,8.90
2023-04-12T05:09:54.529Z,9.00
2023-04-12T05:12:24.534Z,9.20
2023-04-12T05:15:08.593Z,9.20
2023-04-12T05:17:40.110Z,9.22
2023-04-12T05:20:11.007Z,9.28
2023-04-12T05:22:39.993Z,9.30
2023-04-12T05:25:08.421Z,9.32
2023-04-12T05:27:40.806Z,9.30
2023-04-12T05:30:09.725Z,9.34
2023-04-12T05:32:37.828Z,9.30
2023-04-12T05:35:07.090Z,9.52
2023-04-12T05:37:35.732Z,9.50
2023-04-12T05:40:07.368Z,9.50
2023-04-12T05:42:39.262Z,9.40
2023-04-12T05:45:08.086Z,9.28
2023-04-12T05:47:37.183Z,9.18
2023-04-12T05:50:07.171Z,9.10
2023-04-12T05:52:37.213Z,9.00
2023-04-12T05:55:06.240Z,8.96
2023-04-12T05:57:35.657Z,8.86
2023-04-12T06:00:07.853Z,8.90
2023-04-12T06:02:40.947Z,8.90
2023-04-12T06:05:11.826Z,8.98
2023-04-12T06:07:42.227Z,9.00
2023-04-12T06:10:10.828Z,9.20
2023-04-12T06:12:38.850Z,9.10
2023-04-12T06:15:07.700Z,9.10
2023-04-12T06:17:37.157Z,9.00
2023-04-12T06:20:08.708Z,9.10
2023-04-12T06:22:37.998Z,9.20
2023-04-12T06:25:08.160Z,9.20
2023-04-12T06:27:36.378Z,9.24
2023-04-12T06:30:04.937Z,9.40
2023-04-12T06:32:36.389Z,9.38
2023-04-12T06:35:07.920Z,9.40
2023-04-12T06:37:36.199Z,9.34
2023-04-12T06:40:04.587Z,9.60
2023-04-12T06:42:32.570Z,9.74
2023-04-12T06:45:00.585Z,9.90
2023-04-12T06:47:28.671Z,10.04
2023-04-12T06:49:58.389Z,10.04
2023-04-12T06:52:26.886Z,10.16
2023-04-12T06:54:56.458Z,10.12
2023-04-12T06:57:25.118Z,10.30
2023-04-12T06:59:53.229Z,10.30
2023-04-12T07:02:21.367Z,10.30
2023-04-12T07:04:55.689Z,10.44
2023-04-12T07:07:23.718Z,10.64
2023-04-12T07:09:52.604Z,11.22
2023-04-12T07:12:21.049Z,11.84
2023-04-12T07:14:49.120Z,12.52
2023-04-12T07:17:17.192Z,12.72
2023-04-12T07:19:45.271Z,13.28
2023-04-12T07:22:14.234Z,14.08
2023-04-12T07:24:42.655Z,14.30
2023-04-12T07:27:11.327Z,15.02
2023-04-12T07:29:39.465Z,14.90
2023-04-12T07:32:08.865Z,14.16
2023-04-12T07:34:37.798Z,13.34
2023-04-12T07:37:06.312Z,12.80
2023-04-12T07:39:35.191Z,12.10
2023-04-12T07:42:03.537Z,11.80
2023-04-12T07:44:31.830Z,11.54
2023-04-12T07:46:59.935Z,11.36
2023-04-12T07:49:28.033Z,11.54
2023-04-12T07:51:56.554Z,11.70
2023-04-12T07:54:27.406Z,11.74
2023-04-12T07:57:03.411Z,12.00
2023-04-12T07:59:31.995Z,12.00
2023-04-12T08:02:00.550Z,12.10
2023-04-12T08:04:29.024Z,12.24
2023-04-12T08:06:57.249Z,12.18
2023-04-12T08:09:25.326Z,12.42
2023-04-12T08:11:53.423Z,12.80
2023-04-12T08:14:21.440Z,12.70
2023-04-12T08:16:49.421Z,13.00
2023-04-12T08:19:18.529Z,13.16
2023-04-12T08:21:46.708Z,13.30
2023-04-12T08:24:14.897Z,13.54
2023-04-12T08:26:43.011Z,13.60
2023-04-12T08:29:11.418Z,13.24
2023-04-12T08:31:39.913Z,13.66
2023-04-12T08:34:08.056Z,13.60
2023-04-12T08:36:36.013Z,14.08
2023-04-12T08:39:04.024Z,14.08
2023-04-12T08:41:32.157Z,13.72
2023-04-12T08:44:00.531Z,14.36
2023-04-12T08:46:30.265Z,14.92
2023-04-12T08:48:58.438Z,16.38
2023-04-12T08:51:27.208Z,16.74
2023-04-12T08:53:55.772Z,16.68
2023-04-12T08:56:24.124Z,16.18
2023-04-12T08:58:52.186Z,15.80
2023-04-12T09:01:21.226Z,15.06
2023-04-12T09:03:49.624Z,14.96
2023-04-12T09:06:17.989Z,14.10
2023-04-12T09:08:53.741Z,13.80
2023-04-12T09:11:24.952Z,13.60
2023-04-12T09:13:56.841Z,13.20
2023-04-12T09:16:38.512Z,13.18
2023-04-12T09:19:06.749Z,13.10
2023-04-12T09:21:34.972Z,12.88
2023-04-12T09:24:12.301Z,12.70
2023-04-12T09:26:42.721Z,12.62
2023-04-12T09:29:24.379Z,12.72
2023-04-12T09:31:57.021Z,13.02
2023-04-12T09:34:26.644Z,13.58
2023-04-12T09:36:56.322Z,14.16
2023-04-12T09:39:34.384Z,14.30
2023-04-12T09:42:21.451Z,14.84
2023-04-12T09:44:58.291Z,15.04
2023-04-12T09:47:39.907Z,15.26
2023-04-12T09:50:08.741Z,16.02
2023-04-12T09:52:40.490Z,17.20
2023-04-12T09:55:09.977Z,18.34
2023-04-12T09:57:42.459Z,18.98
2023-04-12T10:00:18.274Z,18.98
2023-04-12T10:02:52.260Z,18.40
2023-04-12T10:05:23.329Z,18.12
2023-04-12T10:07:52.299Z,17.16
2023-04-12T10:10:20.846Z,16.54
2023-04-12T10:12:49.326Z,16.02
2023-04-12T10:15:18.425Z,15.68
2023-04-12T10:17:48.575Z,15.12
2023-04-12T10:20:17.865Z,15.20
2023-04-12T10:22:50.491Z,15.10
2023-04-12T10:25:25.934Z,14.80
2023-04-12T10:27:54.262Z,14.60
2023-04-12T10:30:25.961Z,14.32
2023-04-12T10:33:03.707Z,14.30
2023-04-12T10:35:52.311Z,14.12
2023-04-12T10:38:20.815Z,14.10
2023-04-12T10:41:17.728Z,13.98
2023-04-12T10:43:47.077Z,14.28
2023-04-12T10:46:46.514Z,14.32
2023-04-12T10:52:01.060Z,14.40
2023-04-12T10:54:29.643Z,14.40
2023-04-12T10:56:57.857Z,14.40
2023-04-12T10:59:51.985Z,14.14
2023-04-12T11:02:20.126Z,14.24
2023-04-12T11:05:06.138Z,14.26
2023-04-12T11:07:53.599Z,14.10
2023-04-12T11:10:40.097Z,13.98
2023-04-12T11:13:10.844Z,13.80
2023-04-12T11:15:39.771Z,13.90
2023-04-12T11:18:12.949Z,13.96
2023-04-12T11:20:41.193Z,13.96
2023-04-12T11:23:11.259Z,13.60
2023-04-12T11:25:40.470Z,13.68
2023-04-12T11:28:21.139Z,13.60
2023-04-12T11:30:57.703Z,13.62
2023-04-12T11:33:32.780Z,13.60
2023-04-12T11:36:07.187Z,13.68
2023-04-12T11:38:35.820Z,13.66
2023-04-12T11:41:06.219Z,13.52
2023-04-12T11:43:35.129Z,13.52
2023-04-12T11:46:03.405Z,13.82
2023-04-12T11:48:31.452Z,14.02
2023-04-12T11:51:10.438Z,14.14
2023-04-12T11:53:39.335Z,14.30
2023-04-12T11:56:08.518Z,14.30
2023-04-12T11:58:36.595Z,14.34
2023-04-12T12:01:04.803Z,14.30
2023-04-12T12:03:33.018Z,13.92
2023-04-12T12:06:01.813Z,14.00
2023-04-12T12:08:30.060Z,14.08
2023-04-12T12:11:07.364Z,14.12
2023-04-12T12:13:50.481Z,13.72
2023-04-12T12:16:19.815Z,13.82
2023-04-12T12:18:50.959Z,13.80
2023-04-12T12:21:20.922Z,13.52
2023-04-12T12:23:49.065Z,13.48
2023-04-12T12:26:24.596Z,13.28
2023-04-12T12:28:54.421Z,13.20
2023-04-12T12:31:24.102Z,13.04
2023-04-12T12:33:57.332Z,12.98
2023-04-12T12:36:36.333Z,12.80
2023-04-12T12:39:07.559Z,12.78
2023-04-12T12:41:36.019Z,12.80
2023-04-12T12:44:04.076Z,12.88
2023-04-12T12:46:50.792Z,12.56
2023-04-12T12:49:20.296Z,12.56
2023-04-12T12:51:48.399Z,12.50
2023-04-12T12:54:28.427Z,12.56
2023-04-12T12:57:04.659Z,12.50
2023-04-12T12:59:32.779Z,12.46
2023-04-12T13:02:01.070Z,12.30
2023-04-12T13:04:29.303Z,12.16
2023-04-12T13:06:57.309Z,12.10
2023-04-12T13:09:25.607Z,12.20
2023-04-12T13:11:53.673Z,12.02
2023-04-12T13:14:21.716Z,11.98
2023-04-12T13:16:49.937Z,11.74
2023-04-12T13:19:18.083Z,11.70
2023-04-12T13:21:46.148Z,11.60
2023-04-12T13:24:14.404Z,11.50
2023-04-12T13:26:43.619Z,11.60
2023-04-12T13:29:11.667Z,11.44
2023-04-12T13:31:39.721Z,11.60
2023-04-12T13:34:07.681Z,11.70
2023-04-12T13:36:35.674Z,11.80
2023-04-12T13:39:03.968Z,11.70
2023-04-12T13:41:33.047Z,11.60
2023-04-12T13:44:01.785Z,11.60
2023-04-12T13:46:31.304Z,11.52
2023-04-12T13:48:59.742Z,11.60
2023-04-12T13:51:28.535Z,11.38
2023-04-12T13:53:56.551Z,11.36
2023-04-12T13:56:24.788Z,11.34
2023-04-12T13:58:52.877Z,11.32
2023-04-12T14:01:23.777Z,11.40
2023-04-12T14:03:53.811Z,11.38
2023-04-12T14:06:22.020Z,11.30
2023-04-12T14:08:51.203Z,11.30
2023-04-12T14:11:19.387Z,11.22
2023-04-12T14:13:47.550Z,11.32
2023-04-12T14:16:16.031Z,11.30
2023-04-12T14:18:44.104Z,11.20
2023-04-12T14:21:12.145Z,11.10
2023-04-12T14:23:41.700Z,11.20
2023-04-12T14:26:15.958Z,11.20
2023-04-12T14:28:44.074Z,11.20
2023-04-12T14:31:15.057Z,11.20
2023-04-12T14:33:43.445Z,11.20
2023-04-12T14:36:11.773Z,11.10
2023-04-12T14:38:39.828Z,11.12
2023-04-12T14:41:08.720Z,11.20
2023-04-12T14:43:36.668Z,11.10
2023-04-12T14:46:05.307Z,11.02
2023-04-12T14:48:33.476Z,11.00
2023-04-12T14:51:01.645Z,11.02
2023-04-12T14:53:33.386Z,10.90
2023-04-12T14:56:02.735Z,10.90
2023-04-12T14:58:31.140Z,10.80
2023-04-12T15:01:00.408Z,10.98
2023-04-12T15:03:30.825Z,10.88
2023-04-12T15:05:59.430Z,10.90
2023-04-12T15:08:29.207Z,11.00
2023-04-12T15:10:57.268Z,10.90
2023-04-12T15:13:33.414Z,10.78
2023-04-12T15:16:02.960Z,10.90
2023-04-12T15:18:31.266Z,10.80
2023-04-12T15:21:00.426Z,10.90
2023-04-12T15:23:28.625Z,10.90
2023-04-12T15:26:02.692Z,10.78
2023-04-12T15:28:31.582Z,10.66
2023-04-12T15:30:59.868Z,10.68
2023-04-12T15:33:28.860Z,10.60
2023-04-12T15:35:56.819Z,10.50
2023-04-12T15:38:25.009Z,10.50
2023-04-12T15:40:59.517Z,10.40
2023-04-12T15:43:28.113Z,10.50
2023-04-12T15:45:56.840Z,10.42
2023-04-12T15:48:25.322Z,10.50
2023-04-12T15:50:54.262Z,10.40
2023-04-12T15:53:26.221Z,10.36
2023-04-12T15:55:55.319Z,10.30
2023-04-12T15:58:24.222Z,10.30
2023-04-12T16:00:54.290Z,10.20
2023-04-12T16:03:23.243Z,10.32
2023-04-12T16:05:56.899Z,10.30
2023-04-12T16:08:27.566Z,10.20
2023-04-12T16:10:55.616Z,10.20
2023-04-12T16:13:23.730Z,10.20
2023-04-12T16:15:52.562Z,10.14
2023-04-12T16:18:21.181Z,10.10
2023-04-12T16:20:52.267Z,10.10
2023-04-12T16:23:26.550Z,10.10
2023-04-12T16:25:55.540Z,10.10
2023-04-12T16:28:24.228Z,10.18
2023-04-12T16:30:54.087Z,10.10
2023-04-12T16:33:23.751Z,10.04
2023-04-12T16:35:53.729Z,10.02
2023-04-12T16:38:22.889Z,10.02
2023-04-12T16:40:51.449Z,10.08
2023-04-12T16:43:20.458Z,10.00
2023-04-12T16:45:53.680Z,10.10
2023-04-12T16:48:26.612Z,10.00
2023-04-12T16:50:58.956Z,10.00
2023-04-12T16:53:30.454Z,10.00
2023-04-12T16:56:04.809Z,10.00
2023-04-12T16:58:36.529Z,10.00
2023-04-12T17:01:05.522Z,10.08
2023-04-12T17:03:33.753Z,10.00
2023-04-12T17:06:04.335Z,9.90
2023-04-12T17:08:32.699Z,9.90
2023-04-12T17:11:00.964Z,9.90
2023-04-12T17:13:30.474Z,9.84
2023-04-12T17:15:58.616Z,9.90
2023-04-12T17:18:26.694Z,9.92
2023-04-12T17:20:56.119Z,9.90
2023-04-12T17:23:24.616Z,9.80
2023-04-12T17:25:54.674Z,9.80
2023-04-12T17:28:22.723Z,9.90
2023-04-12T17:30:50.755Z,9.90
2023-04-12T17:33:18.879Z,10.00
2023-04-12T17:35:47.036Z,10.00
2023-04-12T17:38:15.232Z,9.96
2023-04-12T17:40:43.256Z,9.98
2023-04-12T17:43:11.838Z,10.00
2023-04-12T17:45:40.053Z,9.98
2023-04-12T17:48:09.000Z,9.96
2023-04-12T17:50:37.015Z,9.90
2023-04-12T17:53:05.156Z,9.90
2023-04-12T17:55:36.576Z,9.96
2023-04-12T17:58:04.968Z,9.90
2023-04-12T18:00:33.349Z,9.90
2023-04-12T18:03:01.632Z,9.92
2023-04-12T18:05:30.563Z,9.90
2023-04-12T18:07:59.666Z,10.00
2023-04-12T18:10:27.729Z,10.00
2023-04-12T18:12:56.381Z,10.10
2023-04-12T18:15:24.559Z,10.00
2023-04-12T18:27:56.184Z,10.00
2023-04-12T18:30:25.177Z,10.00
2023-04-12T18:32:55.641Z,9.90
2023-04-12T18:35:23.977Z,9.90
2023-04-12T18:37:53.122Z,9.90
2023-04-12T18:40:23.528Z,9.90
2023-04-12T18:42:52.196Z,9.90
2023-04-12T18:45:20.564Z,9.90
2023-04-12T18:47:49.129Z,9.90
2023-04-12T18:50:19.799Z,9.80
2023-04-12T18:52:47.958Z,9.76
2023-04-12T18:55:16.654Z,9.80
2023-04-12T18:57:45.991Z,9.80
2023-04-12T19:00:16.087Z,9.80
2023-04-12T19:02:44.330Z,9.78
2023-04-12T19:05:14.917Z,9.80
2023-04-12T19:07:43.298Z,9.80
2023-04-12T19:10:12.872Z,9.80
2023-04-12T19:12:41.059Z,9.80
2023-04-12T19:15:11.170Z,9.80
2023-04-12T19:17:39.644Z,9.72
2023-04-12T19:20:11.092Z,9.64
2023-04-12T19:22:39.267Z,9.76
2023-04-12T19:25:08.688Z,9.70
2023-04-12T19:27:38.140Z,9.70
2023-04-12T19:30:07.236Z,9.70
2023-04-12T19:32:35.550Z,9.80
2023-04-12T19:35:07.717Z,9.80
2023-04-12T19:37:36.205Z,9.84
2023-04-12T19:40:05.487Z,9.80
2023-04-12T19:42:33.517Z,9.80
2023-04-12T19:45:02.558Z,9.86
2023-04-12T19:47:30.951Z,9.80
2023-04-12T19:49:59.713Z,9.80
2023-04-12T19:52:28.531Z,9.80
2023-04-12T19:54:58.604Z,9.80
2023-04-12T19:57:27.744Z,9.80
2023-04-12T19:59:56.096Z,9.80
2023-04-12T20:02:24.883Z,9.80
2023-04-12T20:04:53.791Z,9.78
2023-04-12T20:07:21.959Z,9.80
2023-04-12T20:09:50.558Z,9.80
2023-04-12T20:12:19.561Z,9.72
2023-04-12T20:14:48.235Z,9.70
2023-04-12T20:17:16.400Z,9.70
2023-04-12T20:19:44.583Z,9.74
2023-04-12T20:22:13.705Z,9.78
2023-04-12T20:24:41.945Z,9.70
2023-04-12T20:27:10.431Z,9.70
2023-04-12T20:29:39.518Z,9.70
2023-04-12T20:32:07.504Z,9.70
2023-04-12T20:34:36.386Z,9.70
2023-04-12T20:37:05.370Z,9.70
2023-04-12T20:39:33.550Z,9.70
2023-04-12T20:42:01.607Z,9.70
2023-04-12T20:44:29.701Z,9.70
2023-04-12T20:46:58.701Z,9.60
2023-04-12T20:49:27.842Z,9.70
2023-04-12T20:51:59.159Z,9.68
2023-04-12T20:54:30.101Z,9.60
2023-04-12T20:56:59.778Z,9.58
2023-04-12T20:59:30.440Z,9.54
2023-04-12T21:01:58.580Z,9.58
2023-04-12T21:04:30.469Z,9.56
2023-04-12T21:06:58.832Z,9.60
2023-04-12T21:09:26.899Z,9.52
2023-04-12T21:11:56.302Z,9.60
2023-04-12T21:14:24.538Z,9.60
2023-04-12T21:16:52.791Z,9.52
2023-04-12T21:19:20.928Z,9.60
2023-04-12T21:21:51.114Z,9.60
2023-04-12T21:24:19.144Z,9.60
2023-04-12T21:26:55.626Z,9.60
2023-04-12T21:29:23.962Z,9.60
2023-04-12T21:31:51.988Z,9.66
2023-04-12T21:34:22.058Z,9.70
2023-04-12T21:36:50.171Z,9.70
2023-04-12T21:39:18.701Z,9.70
2023-04-12T21:41:46.892Z,9.70
2023-04-12T21:44:15.015Z,9.66
2023-04-12T21:46:43.004Z,9.60
2023-04-12T21:49:11.113Z,9.60
2023-04-12T21:51:39.276Z,9.60
2023-04-12T21:54:07.446Z,9.60
2023-04-12T21:56:35.622Z,9.58
2023-04-12T21:59:05.700Z,9.58
2023-04-12T22:01:35.317Z,9.58
2023-04-12T22:04:04.773Z,9.50
2023-04-12T22:06:33.134Z,9.50
2023-04-12T22:09:02.104Z,9.48
2023-04-12T22:11:30.624Z,9.40
2023-04-12T22:13:59.011Z,9.40
2023-04-12T22:16:28.125Z,9.30
2023-04-12T22:18:56.521Z,9.30
2023-04-12T22:21:26.696Z,9.30
2023-04-12T22:23:55.376Z,9.20
2023-04-12T22:26:23.598Z,9.20
2023-04-12T22:28:51.738Z,9.20
2023-04-12T22:31:23.058Z,9.10
2023-04-12T22:33:55.150Z,9.10
2023-04-12T22:36:28.566Z,9.02
2023-04-12T22:38:57.730Z,9.00
2023-04-12T22:41:28.412Z,9.00
2023-04-12T22:44:03.089Z,9.08
2023-04-12T22:46:38.954Z,9.10
2023-04-12T22:49:07.945Z,9.08
2023-04-12T22:51:35.997Z,9.04
2023-04-12T22:54:06.530Z,9.00
2023-04-12T22:56:34.582Z,9.00
2023-04-12T22:59:02.878Z,9.00
2023-04-12T23:01:31.088Z,8.94
2023-04-12T23:04:01.092Z,8.90
2023-04-12T23:06:32.333Z,8.82
2023-04-12T23:09:01.818Z,8.80
2023-04-12T23:11:29.962Z,8.70
2023-04-12T23:13:59.006Z,8.66
2023-04-12T23:16:28.184Z,8.60
2023-04-12T23:18:56.514Z,8.50
2023-04-12T23:21:24.654Z,8.50
2023-04-12T23:23:52.914Z,8.50
2023-04-12T23:34:03.504Z,8.40
2023-04-12T23:36:32.218Z,8.40
2023-04-12T23:39:00.534Z,8.32
2023-04-12T23:41:31.774Z,8.38
2023-04-12T23:44:00.556Z,8.30
2023-04-12T23:46:28.953Z,8.30
2023-04-12T23:54:03.481Z,8.30
2023-04-12T23:56:31.740Z,8.28
2023-04-12T23:59:00.018Z,8.30
